Time;durP1;ratioP1;P1;durP2;ratioP2;P2;SDS_P1;SDS_P2;PMS_P1;PMS_P2;Temp;Humidity;BMP_temperature;BMP_pressure;BME280_temperature;BME280_humidity;BME280_pressure;Samples;Min_cycle;Max_cycle;Signal;HPM_P1;HPM_P2
2023/09/09 00:01:41;;;;;;;;;;;26.30;69.30;;;;;;5096815;28;19970;-35
2023/09/09 00:04:07;;;;;;;;;;;26.20;69.50;;;;;;5093781;28;19916;-36
2023/09/09 00:06:33;;;;;;;;;;;26.20;69.60;;;;;;5087571;28;19982;-36
2023/09/09 00:08:59;;;;;;;;;;;26.20;69.60;;;;;;5094036;28;19923;-35
2023/09/09 00:11:25;;;;;;;;;;;26.20;69.70;;;;;;5096500;28;19959;-35
2023/09/09 00:13:51;;;;;;;;;;;26.30;69.60;;;;;;5087617;28;20453;-35
2023/09/09 00:16:17;;;;;;;;;;;26.30;69.80;;;;;;5086497;28;19931;-36
2023/09/09 00:18:43;;;;;;;;;;;26.20;69.70;;;;;;5100283;28;19919;-35
2023/09/09 00:21:09;;;;;;;;;;;26.20;69.60;;;;;;5093384;28;19916;-35
2023/09/09 00:23:35;;;;;;;;;;;26.20;69.60;;;;;;5094977;28;19940;-36
2023/09/09 00:26:01;;;;;;;;;;;26.20;69.70;;;;;;5094340;28;19917;-36
2023/09/09 00:28:27;;;;;;;;;;;26.20;69.70;;;;;;5100298;28;19954;-36
2023/09/09 00:30:53;;;;;;;;;;;26.20;69.70;;;;;;5087012;28;20373;-36
2023/09/09 00:33:19;;;;;;;;;;;26.20;69.70;;;;;;5089428;28;19970;-36
2023/09/09 00:35:45;;;;;;;;;;;26.20;69.80;;;;;;5094843;28;19924;-35
2023/09/09 00:38:12;;;;;;;;;;;26.20;69.70;;;;;;5093805;28;19924;-35
2023/09/09 00:40:42;;;;;;;;;;;26.20;69.90;;;;;;5103406;28;19916;-34
2023/09/09 00:43:08;;;;;;;;;;;26.20;69.90;;;;;;5086727;28;20464;-35
2023/09/09 00:45:34;;;;;;;;;;;26.20;69.90;;;;;;5086168;28;19955;-35
2023/09/09 00:48:00;;;;;;;;;;;26.20;70.00;;;;;;5093069;28;20339;-35
2023/09/09 00:50:26;;;;;;;;;;;26.10;69.90;;;;;;5101722;28;19956;-35
2023/09/09 00:52:52;;;;;;;;;;;26.10;69.80;;;;;;5087455;28;19916;-35
2023/09/09 00:55:18;;;;;;;;;;;26.10;69.90;;;;;;5093633;28;19923;-35
2023/09/09 00:57:44;;;;;;;;;;;26.10;70.00;;;;;;5089192;28;19992;-35
2023/09/09 01:00:10;;;;;;;;;;;26.10;70.00;;;;;;5095241;28;19916;-35
2023/09/09 01:02:39;;;;;;;;;;;26.10;69.90;;;;;;5088543;28;19916;-36
2023/09/09 01:05:05;;;;;;;;;;;26.10;69.70;;;;;;5103743;28;19958;-35
2023/09/09 01:07:51;;;;;;;;;;;26.10;69.60;;;;;;5100377;28;19938;-35
2023/09/09 01:10:18;;;;;;;;;;;26.10;69.60;;;;;;5085189;28;19916;-35
2023/09/09 01:12:43;;;;;;;;;;;26.10;69.60;;;;;;5087004;28;19991;-34
2023/09/09 01:15:10;;;;;;;;;;;26.10;69.50;;;;;;5090853;28;19955;-35
2023/09/09 01:17:35;;;;;;;;;;;26.10;69.30;;;;;;5093623;28;19971;-36
2023/09/09 01:20:13;;;;;;;;;;;26.10;69.20;;;;;;5090188;28;19959;-35
2023/09/09 01:22:43;;;;;;;;;;;26.10;69.40;;;;;;5109477;28;19943;-35
2023/09/09 01:25:10;;;;;;;;;;;26.10;69.50;;;;;;5096696;28;19923;-35
2023/09/09 01:27:36;;;;;;;;;;;26.10;69.60;;;;;;5097807;28;19931;-35
2023/09/09 01:30:02;;;;;;;;;;;26.10;69.70;;;;;;5092560;28;19913;-36
2023/09/09 01:32:27;;;;;;;;;;;26.10;69.70;;;;;;5093206;28;19984;-35
2023/09/09 01:34:53;;;;;;;;;;;26.00;69.70;;;;;;5099716;28;19967;-35
2023/09/09 01:37:19;;;;;;;;;;;26.00;69.90;;;;;;5089949;28;19921;-40
2023/09/09 01:39:45;;;;;;;;;;;26.00;69.80;;;;;;5100977;28;19916;-36
2023/09/09 01:42:11;;;;;;;;;;;26.00;69.60;;;;;;5096295;28;19920;-35
2023/09/09 01:44:37;;;;;;;;;;;26.00;69.30;;;;;;5101753;28;19920;-35
2023/09/09 01:47:03;;;;;;;;;;;26.00;69.20;;;;;;5102713;28;19916;-35
2023/09/09 01:49:29;;;;;;;;;;;26.00;69.00;;;;;;5093937;28;19916;-36
2023/09/09 01:51:55;;;;;;;;;;;26.00;69.00;;;;;;5102802;28;19913;-34
2023/09/09 01:54:21;;;;;;;;;;;26.00;68.90;;;;;;5102578;28;19920;-35
2023/09/09 01:56:47;;;;;;;;;;;25.90;68.90;;;;;;5092894;28;19959;-36
2023/09/09 01:59:12;;;;;;;;;;;25.90;68.90;;;;;;5096608;28;19916;-35
2023/09/09 02:01:38;;;;;;;;;;;25.90;68.80;;;;;;5101818;28;19912;-35
2023/09/09 02:04:04;;;;;;;;;;;25.90;68.80;;;;;;5095294;28;20002;-35
2023/09/09 02:06:30;;;;;;;;;;;25.90;69.30;;;;;;5101971;28;19916;-36
2023/09/09 02:08:56;;;;;;;;;;;25.90;69.50;;;;;;5102180;28;19923;-35
2023/09/09 02:11:22;;;;;;;;;;;25.90;69.60;;;;;;5095411;28;19942;-35
2023/09/09 02:13:47;;;;;;;;;;;25.90;69.70;;;;;;5100982;28;19916;-35
2023/09/09 02:16:13;;;;;;;;;;;25.90;69.80;;;;;;5102162;28;20010;-35
2023/09/09 02:18:40;;;;;;;;;;;25.90;69.80;;;;;;5100385;28;20367;-36
2023/09/09 02:21:06;;;;;;;;;;;25.90;69.80;;;;;;5101804;28;19923;-35
2023/09/09 02:23:32;;;;;;;;;;;25.80;69.50;;;;;;5101711;28;19916;-35
2023/09/09 02:26:01;;;;;;;;;;;25.80;69.30;;;;;;5100959;28;19912;-35
2023/09/09 02:28:26;;;;;;;;;;;25.80;69.20;;;;;;5101031;28;19916;-35
2023/09/09 02:30:52;;;;;;;;;;;25.80;69.10;;;;;;5093848;28;19927;-34
2023/09/09 02:33:18;;;;;;;;;;;25.80;69.00;;;;;;5094611;28;19943;-35
2023/09/09 02:35:44;;;;;;;;;;;25.80;68.90;;;;;;5094057;28;19924;-34
2023/09/09 02:38:10;;;;;;;;;;;25.80;69.10;;;;;;5094437;28;19946;-35
2023/09/09 02:40:38;;;;;;;;;;;25.80;69.00;;;;;;5093503;28;20423;-35
2023/09/09 02:43:24;;;;;;;;;;;25.80;69.20;;;;;;5004013;28;19924;-35
2023/09/09 02:45:50;;;;;;;;;;;25.80;69.10;;;;;;5005794;28;19921;-35
2023/09/09 02:48:16;;;;;;;;;;;25.80;69.20;;;;;;4986008;28;19968;-35
2023/09/09 02:50:42;;;;;;;;;;;25.70;69.60;;;;;;5005943;28;20342;-34
2023/09/09 02:53:08;;;;;;;;;;;25.70;69.60;;;;;;5005863;28;19913;-35
2023/09/09 02:55:34;;;;;;;;;;;25.70;69.80;;;;;;4990568;28;19941;-35
2023/09/09 02:58:00;;;;;;;;;;;25.70;69.90;;;;;;5006680;28;20659;-36
2023/09/09 03:00:26;;;;;;;;;;;25.70;69.80;;;;;;5006593;28;19914;-35
2023/09/09 03:02:51;;;;;;;;;;;25.70;69.70;;;;;;5002480;28;19961;-35
2023/09/09 03:05:17;;;;;;;;;;;25.60;69.90;;;;;;5010171;28;19924;-35
2023/09/09 03:07:44;;;;;;;;;;;25.70;69.50;;;;;;5012222;28;19917;-35
2023/09/09 03:10:10;;;;;;;;;;;25.60;69.40;;;;;;4995437;28;19913;-36
2023/09/09 03:12:36;;;;;;;;;;;25.60;69.30;;;;;;5008311;28;19925;-35
2023/09/09 03:15:05;;;;;;;;;;;25.60;69.40;;;;;;5002267;28;19917;-35
2023/09/09 03:17:31;;;;;;;;;;;25.60;69.40;;;;;;5011199;28;19936;-35
2023/09/09 03:19:57;;;;;;;;;;;25.60;69.60;;;;;;5042142;28;19975;-35
2023/09/09 03:22:23;;;;;;;;;;;25.60;69.50;;;;;;5094704;28;19912;-35
2023/09/09 03:24:48;;;;;;;;;;;25.60;69.50;;;;;;5092566;28;19920;-35
2023/09/09 03:27:14;;;;;;;;;;;25.60;69.50;;;;;;5094569;28;19923;-35
2023/09/09 03:29:40;;;;;;;;;;;25.50;69.40;;;;;;5091148;28;19913;-35
2023/09/09 03:32:06;;;;;;;;;;;25.50;69.50;;;;;;5093762;28;19955;-35
2023/09/09 03:34:32;;;;;;;;;;;25.50;69.60;;;;;;5093791;28;19946;-36
2023/09/09 03:36:58;;;;;;;;;;;25.50;69.70;;;;;;5089448;28;19927;-36
2023/09/09 03:39:24;;;;;;;;;;;25.50;69.80;;;;;;5094147;28;19916;-34
2023/09/09 03:41:50;;;;;;;;;;;25.50;69.70;;;;;;5093036;28;20027;-35
2023/09/09 03:44:16;;;;;;;;;;;25.50;69.80;;;;;;5094816;28;19939;-35
2023/09/09 03:46:42;;;;;;;;;;;25.50;70.00;;;;;;5094393;28;19916;-34
2023/09/09 03:49:07;;;;;;;;;;;25.50;69.70;;;;;;5093914;28;19959;-34
2023/09/09 03:51:33;;;;;;;;;;;25.40;69.80;;;;;;5094560;28;19916;-34
2023/09/09 03:54:00;;;;;;;;;;;25.40;69.80;;;;;;5093961;28;21563;-34
2023/09/09 03:56:26;;;;;;;;;;;25.40;69.90;;;;;;5094173;28;19916;-34
2023/09/09 03:58:52;;;;;;;;;;;25.40;69.90;;;;;;5093969;28;19927;-34
2023/09/09 04:01:18;;;;;;;;;;;25.40;69.70;;;;;;5093821;28;19951;-35
2023/09/09 04:03:44;;;;;;;;;;;25.40;69.90;;;;;;5093242;28;19999;-35
2023/09/09 04:06:10;;;;;;;;;;;25.40;69.90;;;;;;5095185;28;19920;-35
2023/09/09 04:08:36;;;;;;;;;;;25.40;69.80;;;;;;5094193;28;19919;-35
2023/09/09 04:11:05;;;;;;;;;;;25.30;69.70;;;;;;5101384;28;19920;-35
2023/09/09 04:13:31;;;;;;;;;;;25.40;70.00;;;;;;5093803;28;20336;-35
2023/09/09 04:15:57;;;;;;;;;;;25.30;70.00;;;;;;5093152;28;19974;-35
2023/09/09 04:18:23;;;;;;;;;;;25.30;70.00;;;;;;5082458;28;19930;-34
2023/09/09 04:20:49;;;;;;;;;;;25.30;70.80;;;;;;5088298;28;19955;-34
2023/09/09 04:23:15;;;;;;;;;;;25.30;70.00;;;;;;5094027;28;20364;-35
2023/09/09 04:25:42;;;;;;;;;;;25.20;70.10;;;;;;5089933;28;19924;-34
2023/09/09 04:28:11;;;;;;;;;;;25.30;70.20;;;;;;5099046;28;19928;-34
2023/09/09 04:30:38;;;;;;;;;;;25.20;70.20;;;;;;5103972;28;19923;-35
2023/09/09 04:33:08;;;;;;;;;;;25.20;70.20;;;;;;5103961;28;19920;-35
2023/09/09 04:35:34;;;;;;;;;;;25.20;70.10;;;;;;5063319;28;19922;-34
2023/09/09 04:38:00;;;;;;;;;;;25.20;70.30;;;;;;5095845;28;23589;-35
2023/09/09 04:40:26;;;;;;;;;;;25.20;70.20;;;;;;5097329;28;20026;-34
2023/09/09 04:42:52;;;;;;;;;;;25.20;70.20;;;;;;5096666;28;19955;-35
2023/09/09 04:45:19;;;;;;;;;;;25.20;70.20;;;;;;5097192;28;19979;-34
2023/09/09 04:47:45;;;;;;;;;;;25.20;70.30;;;;;;5095877;28;19912;-34
2023/09/09 04:50:13;;;;;;;;;;;25.20;70.30;;;;;;5078139;28;20215;-35
2023/09/09 04:52:38;;;;;;;;;;;25.20;70.20;;;;;;5096430;28;19958;-34
2023/09/09 04:55:04;;;;;;;;;;;25.20;70.30;;;;;;5096483;28;19912;-34
2023/09/09 04:57:30;;;;;;;;;;;25.10;70.30;;;;;;5096430;28;19928;-35
2023/09/09 04:59:56;;;;;;;;;;;25.10;70.30;;;;;;5097597;28;19919;-34
2023/09/09 05:02:22;;;;;;;;;;;25.10;70.30;;;;;;5096115;28;19937;-34
2023/09/09 05:04:48;;;;;;;;;;;25.10;70.40;;;;;;5096132;28;20006;-35
2023/09/09 05:07:14;;;;;;;;;;;25.10;70.40;;;;;;5100138;28;19919;-35
2023/09/09 05:09:40;;;;;;;;;;;25.00;70.30;;;;;;5096542;28;20019;-36
2023/09/09 05:12:06;;;;;;;;;;;25.00;70.50;;;;;;5096760;28;19916;-35
2023/09/09 05:14:31;;;;;;;;;;;25.00;70.60;;;;;;5095808;28;19919;-35
2023/09/09 05:16:57;;;;;;;;;;;25.00;70.50;;;;;;5102857;28;20319;-35
2023/09/09 05:19:23;;;;;;;;;;;25.00;70.50;;;;;;5096745;28;20028;-35
2023/09/09 05:21:49;;;;;;;;;;;25.00;70.40;;;;;;5101599;28;19920;-35
2023/09/09 05:24:15;;;;;;;;;;;25.00;70.50;;;;;;5090635;28;19991;-35
2023/09/09 05:26:41;;;;;;;;;;;25.00;70.50;;;;;;5090529;28;20028;-35
2023/09/09 05:29:07;;;;;;;;;;;25.00;70.60;;;;;;5089909;28;19916;-35
2023/09/09 05:31:33;;;;;;;;;;;25.00;70.70;;;;;;5088082;28;19912;-34
2023/09/09 05:33:58;;;;;;;;;;;25.00;70.70;;;;;;5091291;28;19920;-35
2023/09/09 05:36:24;;;;;;;;;;;25.00;70.70;;;;;;5085271;28;19921;-34
2023/09/09 05:38:50;;;;;;;;;;;24.90;70.70;;;;;;5086137;28;19970;-35
2023/09/09 05:41:16;;;;;;;;;;;24.90;70.80;;;;;;5092973;28;19913;-35
2023/09/09 05:43:42;;;;;;;;;;;24.90;70.80;;;;;;5092441;28;19916;-35
2023/09/09 05:46:08;;;;;;;;;;;24.90;70.90;;;;;;5092559;28;19912;-36
2023/09/09 05:48:34;;;;;;;;;;;24.90;70.90;;;;;;5094737;28;19912;-36
2023/09/09 05:51:00;;;;;;;;;;;24.90;70.90;;;;;;5086390;28;19923;-35
2023/09/09 05:53:26;;;;;;;;;;;24.90;70.90;;;;;;5085954;28;19919;-35
2023/09/09 05:55:52;;;;;;;;;;;24.90;71.10;;;;;;5087636;28;19920;-35
2023/09/09 05:58:17;;;;;;;;;;;24.90;71.00;;;;;;5100748;28;20353;-35
2023/09/09 06:00:43;;;;;;;;;;;24.90;70.90;;;;;;5099990;28;20309;-35
2023/09/09 06:03:09;;;;;;;;;;;24.80;70.90;;;;;;5100538;28;19947;-35
2023/09/09 06:05:35;;;;;;;;;;;24.80;70.90;;;;;;5099055;28;19975;-36
2023/09/09 06:08:01;;;;;;;;;;;24.80;71.00;;;;;;5094925;28;19920;-34
2023/09/09 06:10:27;;;;;;;;;;;24.80;71.10;;;;;;5095071;28;19923;-34
2023/09/09 06:12:53;;;;;;;;;;;24.80;71.10;;;;;;5092126;28;19935;-35
2023/09/09 06:15:18;;;;;;;;;;;24.80;71.00;;;;;;5094608;28;20364;-35
2023/09/09 06:17:45;;;;;;;;;;;24.80;71.10;;;;;;5095352;28;20010;-35
2023/09/09 06:20:11;;;;;;;;;;;24.80;71.10;;;;;;5091519;28;19920;-34
2023/09/09 06:22:37;;;;;;;;;;;24.80;71.20;;;;;;5091958;28;19947;-34
2023/09/09 06:25:04;;;;;;;;;;;24.80;71.30;;;;;;5090852;28;19989;-35
2023/09/09 06:27:30;;;;;;;;;;;24.70;71.10;;;;;;5099549;28;20623;-35
2023/09/09 06:29:56;;;;;;;;;;;24.70;71.30;;;;;;5090880;28;19935;-35
2023/09/09 06:32:22;;;;;;;;;;;24.70;71.20;;;;;;5090175;28;19924;-34
2023/09/09 06:34:48;;;;;;;;;;;24.70;71.30;;;;;;5092414;28;20183;-35
2023/09/09 06:37:13;;;;;;;;;;;24.70;71.40;;;;;;5091972;28;20396;-35
2023/09/09 06:39:39;;;;;;;;;;;24.70;71.40;;;;;;5091414;28;19939;-35
2023/09/09 06:42:05;;;;;;;;;;;24.70;71.30;;;;;;5090697;28;19990;-35
2023/09/09 06:44:31;;;;;;;;;;;24.70;71.20;;;;;;5091151;28;19916;-34
2023/09/09 06:46:57;;;;;;;;;;;24.60;71.30;;;;;;5102391;28;19916;-35
2023/09/09 06:49:23;;;;;;;;;;;24.60;71.20;;;;;;5096779;28;19916;-35
2023/09/09 06:51:49;;;;;;;;;;;24.60;71.30;;;;;;5087324;28;19943;-35
2023/09/09 06:54:15;;;;;;;;;;;24.60;71.30;;;;;;5101398;28;19916;-35
2023/09/09 06:56:41;;;;;;;;;;;24.60;71.30;;;;;;5096513;28;19951;-35
2023/09/09 06:59:07;;;;;;;;;;;24.60;71.40;;;;;;5094120;28;19938;-35
2023/09/09 07:01:33;;;;;;;;;;;24.60;71.50;;;;;;5100959;28;20337;-35
2023/09/09 07:03:59;;;;;;;;;;;24.60;71.50;;;;;;5093630;28;19971;-35
2023/09/09 07:06:25;;;;;;;;;;;24.60;71.50;;;;;;5090567;28;19912;-36
2023/09/09 07:08:52;;;;;;;;;;;24.60;71.50;;;;;;5093253;28;19991;-35
2023/09/09 07:11:18;;;;;;;;;;;24.60;71.50;;;;;;5101355;28;19916;-34
2023/09/09 07:13:43;;;;;;;;;;;24.50;71.60;;;;;;5092166;28;20014;-34
2023/09/09 07:16:09;;;;;;;;;;;24.60;71.60;;;;;;5090483;28;19912;-35
2023/09/09 07:18:35;;;;;;;;;;;24.50;71.50;;;;;;5097189;28;19966;-35
2023/09/09 07:21:01;;;;;;;;;;;24.50;71.60;;;;;;5089562;28;19983;-35
2023/09/09 07:23:27;;;;;;;;;;;24.50;71.50;;;;;;5093746;28;19927;-35
2023/09/09 07:25:53;;;;;;;;;;;24.50;71.50;;;;;;5085889;28;19916;-35
2023/09/09 07:28:19;;;;;;;;;;;24.50;71.50;;;;;;5093200;28;19916;-35
2023/09/09 07:30:45;;;;;;;;;;;24.50;71.50;;;;;;5093747;28;19954;-36
2023/09/09 07:33:11;;;;;;;;;;;24.50;71.50;;;;;;5094119;28;19927;-35
2023/09/09 07:35:38;;;;;;;;;;;24.50;71.50;;;;;;5100222;28;19920;-34
2023/09/09 07:38:07;;;;;;;;;;;24.50;71.60;;;;;;5097670;28;19920;-35
2023/09/09 07:40:33;;;;;;;;;;;24.50;71.60;;;;;;5098592;28;19916;-35
2023/09/09 07:42:59;;;;;;;;;;;24.50;71.70;;;;;;5091485;28;19963;-35
2023/09/09 07:45:26;;;;;;;;;;;24.50;71.80;;;;;;5083427;28;19948;-35
2023/09/09 07:47:51;;;;;;;;;;;24.50;71.80;;;;;;5083410;28;19950;-35
2023/09/09 07:50:17;;;;;;;;;;;24.50;71.90;;;;;;5089673;28;19916;-35
2023/09/09 07:52:43;;;;;;;;;;;24.40;71.70;;;;;;5092936;28;19912;-34
2023/09/09 07:55:10;;;;;;;;;;;24.40;71.80;;;;;;5090727;28;19927;-35
2023/09/09 07:57:36;;;;;;;;;;;24.40;71.80;;;;;;5083555;28;19980;-34
2023/09/09 08:00:02;;;;;;;;;;;24.40;71.80;;;;;;5093859;28;19963;-35
2023/09/09 08:02:28;;;;;;;;;;;24.40;71.80;;;;;;5102746;28;20469;-36
2023/09/09 08:04:54;;;;;;;;;;;24.40;72.50;;;;;;5094973;28;19916;-35
2023/09/09 08:07:20;;;;;;;;;;;24.40;71.80;;;;;;5097513;28;20391;-35
2023/09/09 08:09:45;;;;;;;;;;;24.40;71.70;;;;;;5089666;28;19922;-35
2023/09/09 08:12:11;;;;;;;;;;;24.30;71.80;;;;;;5093240;28;20012;-34
2023/09/09 08:14:37;;;;;;;;;;;24.30;71.80;;;;;;5093957;28;20006;-35
2023/09/09 08:17:03;;;;;;;;;;;24.30;71.80;;;;;;5091691;28;19966;-35
2023/09/09 08:19:30;;;;;;;;;;;24.30;71.80;;;;;;5096157;28;19917;-35
2023/09/09 08:21:56;;;;;;;;;;;24.30;71.80;;;;;;5098033;28;19955;-35
2023/09/09 08:24:22;;;;;;;;;;;24.30;72.00;;;;;;5105683;28;20017;-35
2023/09/09 08:26:48;;;;;;;;;;;24.30;72.00;;;;;;5068530;28;19931;-35
2023/09/09 08:29:14;;;;;;;;;;;24.30;72.00;;;;;;5090136;28;19913;-35
2023/09/09 08:31:41;;;;;;;;;;;24.30;72.00;;;;;;5086037;28;19923;-35
2023/09/09 08:34:06;;;;;;;;;;;24.30;72.00;;;;;;5092672;28;19924;-34
2023/09/09 08:36:32;;;;;;;;;;;24.30;72.00;;;;;;5086304;28;19931;-35
2023/09/09 08:39:19;;;;;;;;;;;24.20;72.00;;;;;;5093742;28;20003;-35
2023/09/09 08:41:54;;;;;;;;;;;24.30;72.10;;;;;;5040963;28;19925;-35
2023/09/09 08:44:37;;;;;;;;;;;24.20;72.10;;;;;;5042680;28;20427;-34
2023/09/09 08:47:03;;;;;;;;;;;24.20;72.00;;;;;;5042308;28;19917;-35
2023/09/09 08:49:30;;;;;;;;;;;24.20;72.00;;;;;;5042196;28;20509;-35
2023/09/09 08:52:02;;;;;;;;;;;24.20;72.00;;;;;;5026031;28;19913;-35
2023/09/09 08:54:28;;;;;;;;;;;24.20;72.00;;;;;;5042598;28;19960;-35
2023/09/09 08:56:53;;;;;;;;;;;24.20;71.90;;;;;;5041474;28;19929;-34
2023/09/09 08:59:19;;;;;;;;;;;24.10;72.00;;;;;;5040547;28;19913;-35
2023/09/09 09:01:45;;;;;;;;;;;24.20;72.10;;;;;;5042217;28;19917;-35
2023/09/09 09:04:11;;;;;;;;;;;24.20;72.10;;;;;;5042331;28;19967;-36
2023/09/09 09:06:37;;;;;;;;;;;24.10;72.10;;;;;;5041767;28;19984;-35
2023/09/09 09:09:03;;;;;;;;;;;24.10;72.20;;;;;;5024467;28;19921;-35
2023/09/09 09:11:29;;;;;;;;;;;24.10;72.30;;;;;;5041088;28;19963;-35
2023/09/09 09:13:55;;;;;;;;;;;24.10;72.30;;;;;;5024443;28;19923;-35
2023/09/09 09:16:21;;;;;;;;;;;24.10;72.30;;;;;;5025516;28;19917;-34
2023/09/09 09:18:47;;;;;;;;;;;24.10;72.30;;;;;;5064331;28;20023;-35
2023/09/09 09:21:12;;;;;;;;;;;24.10;72.40;;;;;;5104108;28;19923;-34
2023/09/09 09:23:45;;;;;;;;;;;24.10;72.40;;;;;;5092925;28;19916;-35
2023/09/09 09:26:31;;;;;;;;;;;24.10;72.40;;;;;;5099607;28;19923;-35
2023/09/09 09:29:01;;;;;;;;;;;24.10;72.40;;;;;;5096058;28;19916;-35
2023/09/09 09:31:27;;;;;;;;;;;24.10;72.30;;;;;;5089061;28;19955;-34
2023/09/09 09:33:53;;;;;;;;;;;24.10;72.30;;;;;;5085495;28;19924;-35
2023/09/09 09:36:19;;;;;;;;;;;24.00;72.30;;;;;;5094995;28;20464;-35
2023/09/09 09:38:45;;;;;;;;;;;24.00;72.30;;;;;;5101210;28;19920;-35
2023/09/09 09:41:11;;;;;;;;;;;24.00;72.30;;;;;;5097983;28;20470;-35
2023/09/09 09:43:37;;;;;;;;;;;24.00;72.40;;;;;;5110370;28;19967;-35
2023/09/09 09:46:15;;;;;;;;;;;24.00;72.50;;;;;;5096015;28;19916;-35
2023/09/09 09:48:40;;;;;;;;;;;24.00;72.40;;;;;;5098614;28;19913;-35
2023/09/09 09:51:07;;;;;;;;;;;24.00;72.50;;;;;;5096142;28;19917;-34
2023/09/09 09:53:56;;;;;;;;;;;24.00;72.50;;;;;;5091820;28;19923;-35
2023/09/09 09:56:22;;;;;;;;;;;24.00;72.60;;;;;;5084600;28;19986;-35
2023/09/09 09:58:48;;;;;;;;;;;24.00;72.60;;;;;;5088785;28;19961;-35
2023/09/09 10:01:14;;;;;;;;;;;24.00;72.60;;;;;;5092723;28;19913;-35
2023/09/09 10:03:42;;;;;;;;;;;24.00;72.60;;;;;;5093269;28;19947;-35
2023/09/09 10:06:08;;;;;;;;;;;23.90;72.60;;;;;;5088285;28;19959;-35
2023/09/09 10:08:39;;;;;;;;;;;23.90;72.60;;;;;;5076153;28;19912;-35
2023/09/09 10:11:06;;;;;;;;;;;23.90;72.60;;;;;;5087732;28;19919;-35
2023/09/09 10:13:35;;;;;;;;;;;23.90;72.60;;;;;;5094278;28;19916;-35
2023/09/09 10:16:01;;;;;;;;;;;23.90;72.60;;;;;;5084629;28;20424;-35
2023/09/09 10:18:27;;;;;;;;;;;23.90;72.60;;;;;;5110057;28;19959;-35
2023/09/09 10:20:53;;;;;;;;;;;23.90;72.70;;;;;;5093598;28;19926;-35
2023/09/09 10:23:20;;;;;;;;;;;23.90;72.70;;;;;;5110226;28;19912;-35
2023/09/09 10:25:46;;;;;;;;;;;23.90;72.60;;;;;;5092696;28;19916;-35
2023/09/09 10:28:12;;;;;;;;;;;23.90;72.70;;;;;;5089228;28;19938;-34
2023/09/09 10:30:38;;;;;;;;;;;23.90;72.70;;;;;;5086854;28;19913;-35
2023/09/09 10:33:06;;;;;;;;;;;23.80;72.80;;;;;;5097805;28;19939;-35
2023/09/09 10:35:32;;;;;;;;;;;23.80;72.70;;;;;;5090878;28;19946;-34
2023/09/09 10:37:58;;;;;;;;;;;23.80;72.80;;;;;;5089382;28;19924;-35
2023/09/09 10:40:24;;;;;;;;;;;23.80;72.90;;;;;;5110752;28;19923;-35
2023/09/09 10:42:50;;;;;;;;;;;23.80;72.80;;;;;;5106081;28;19969;-35
2023/09/09 10:45:34;;;;;;;;;;;23.80;72.90;;;;;;5091050;28;19927;-35
2023/09/09 10:48:01;;;;;;;;;;;23.80;72.90;;;;;;5094620;28;20425;-35
2023/09/09 10:50:49;;;;;;;;;;;23.80;72.90;;;;;;5093860;28;19916;-35
2023/09/09 10:53:30;;;;;;;;;;;23.80;72.90;;;;;;5096235;28;19923;-35
2023/09/09 10:55:58;;;;;;;;;;;23.80;72.90;;;;;;5100436;28;19966;-35
2023/09/09 10:58:31;;;;;;;;;;;23.80;73.00;;;;;;5087981;28;19920;-35
2023/09/09 11:00:57;;;;;;;;;;;23.80;73.00;;;;;;5087252;28;19916;-35
2023/09/09 11:03:27;;;;;;;;;;;23.70;72.80;;;;;;5101419;28;19912;-35
2023/09/09 11:05:56;;;;;;;;;;;23.70;72.90;;;;;;5096024;28;19927;-34
2023/09/09 11:08:29;;;;;;;;;;;23.70;72.90;;;;;;5091334;28;19916;-35
2023/09/09 11:11:06;;;;;;;;;;;23.70;73.00;;;;;;5094562;28;20412;-35
2023/09/09 11:13:51;;;;;;;;;;;23.70;73.00;;;;;;5100929;28;19948;-34
2023/09/09 11:16:26;;;;;;;;;;;23.70;73.00;;;;;;5093484;28;19923;-34
2023/09/09 11:18:52;;;;;;;;;;;23.70;73.10;;;;;;5095234;28;20416;-35
2023/09/09 11:21:24;;;;;;;;;;;23.70;73.00;;;;;;5093994;28;19916;-35
2023/09/09 11:23:50;;;;;;;;;;;23.70;73.10;;;;;;5085158;28;19981;-35
2023/09/09 11:26:16;;;;;;;;;;;23.70;73.10;;;;;;5101419;28;19926;-35
2023/09/09 11:28:45;;;;;;;;;;;23.70;73.10;;;;;;5100252;28;19974;-35
2023/09/09 11:31:11;;;;;;;;;;;23.60;73.10;;;;;;5100859;28;19916;-35
2023/09/09 11:33:38;;;;;;;;;;;23.70;73.10;;;;;;5094662;28;19918;-35
2023/09/09 11:36:04;;;;;;;;;;;23.60;73.10;;;;;;5087622;28;20011;-35
2023/09/09 11:38:39;;;;;;;;;;;23.60;73.00;;;;;;5094558;28;19974;-34
2023/09/09 11:41:05;;;;;;;;;;;23.60;73.10;;;;;;5087121;28;20003;-35
2023/09/09 11:43:31;;;;;;;;;;;23.60;73.10;;;;;;5086932;28;19915;-34
2023/09/09 11:45:57;;;;;;;;;;;23.60;73.20;;;;;;5098935;28;20367;-35
2023/09/09 11:48:23;;;;;;;;;;;23.60;73.10;;;;;;5097830;28;20021;-36
2023/09/09 11:50:50;;;;;;;;;;;23.60;73.20;;;;;;5096670;28;19917;-34
2023/09/09 11:53:16;;;;;;;;;;;23.60;73.30;;;;;;5093673;28;19913;-35
2023/09/09 11:55:42;;;;;;;;;;;23.60;73.30;;;;;;5111233;28;19924;-35
2023/09/09 11:58:08;;;;;;;;;;;23.60;73.30;;;;;;5095247;28;20301;-35
2023/09/09 12:00:33;;;;;;;;;;;23.60;73.30;;;;;;5063201;28;20546;-35
2023/09/09 12:02:59;;;;;;;;;;;23.60;73.40;;;;;;5097570;28;19980;-35
2023/09/09 12:05:29;;;;;;;;;;;23.60;73.30;;;;;;5094290;28;19908;-34
2023/09/09 12:07:56;;;;;;;;;;;23.50;73.30;;;;;;5093234;28;19966;-35
2023/09/09 12:10:22;;;;;;;;;;;23.50;73.30;;;;;;5087494;28;20058;-35
2023/09/09 12:12:48;;;;;;;;;;;23.50;73.40;;;;;;5102541;28;20444;-35
2023/09/09 12:15:14;;;;;;;;;;;23.50;73.40;;;;;;5092630;28;19912;-35
2023/09/09 12:17:40;;;;;;;;;;;23.50;73.40;;;;;;5104500;28;19973;-35
2023/09/09 12:20:08;;;;;;;;;;;23.50;73.40;;;;;;5098215;28;19916;-35
2023/09/09 12:22:35;;;;;;;;;;;23.50;73.40;;;;;;5096630;28;20436;-35
2023/09/09 12:25:03;;;;;;;;;;;23.50;73.50;;;;;;5105068;28;20027;-35
2023/09/09 12:27:44;;;;;;;;;;;23.50;73.50;;;;;;5096938;28;19916;-35
2023/09/09 12:30:29;;;;;;;;;;;23.50;73.40;;;;;;5095608;28;19916;-35
2023/09/09 12:32:55;;;;;;;;;;;23.50;73.50;;;;;;5103910;28;19917;-35
2023/09/09 12:35:20;;;;;;;;;;;23.50;73.60;;;;;;5092036;28;19932;-35
2023/09/09 12:37:46;;;;;;;;;;;23.50;73.60;;;;;;5087945;28;19924;-35
2023/09/09 12:40:12;;;;;;;;;;;23.50;73.60;;;;;;5086931;28;19935;-35
2023/09/09 12:42:39;;;;;;;;;;;23.50;73.70;;;;;;5088733;28;19912;-35
2023/09/09 12:45:09;;;;;;;;;;;23.50;73.80;;;;;;5093756;28;19991;-35
2023/09/09 12:47:34;;;;;;;;;;;23.50;73.80;;;;;;5094144;28;19944;-35
2023/09/09 12:50:00;;;;;;;;;;;23.50;73.80;;;;;;5103250;28;19916;-35
2023/09/09 12:52:32;;;;;;;;;;;23.50;73.80;;;;;;5104316;28;19912;-35
2023/09/09 12:54:58;;;;;;;;;;;23.50;73.90;;;;;;5093042;28;19920;-35
2023/09/09 12:57:24;;;;;;;;;;;23.50;74.00;;;;;;5094842;28;19978;-35
2023/09/09 12:59:50;;;;;;;;;;;23.50;74.00;;;;;;5094938;28;19920;-35
2023/09/09 13:02:16;;;;;;;;;;;23.40;73.90;;;;;;5093173;28;20266;-35
2023/09/09 13:04:42;;;;;;;;;;;23.50;74.00;;;;;;5102456;28;20030;-35
2023/09/09 13:07:08;;;;;;;;;;;23.50;74.00;;;;;;5100141;28;19924;-35
2023/09/09 13:09:33;;;;;;;;;;;23.40;74.00;;;;;;5091367;28;19915;-35
2023/09/09 13:11:59;;;;;;;;;;;23.50;74.10;;;;;;5095503;28;19923;-35
2023/09/09 13:14:25;;;;;;;;;;;23.50;74.00;;;;;;5074729;28;19919;-35
2023/09/09 13:16:51;;;;;;;;;;;23.50;74.10;;;;;;5094922;28;19920;-35
2023/09/09 13:19:17;;;;;;;;;;;23.50;74.10;;;;;;5090954;28;19917;-35
2023/09/09 13:21:43;;;;;;;;;;;23.40;73.90;;;;;;5092294;28;19912;-35
2023/09/09 13:24:09;;;;;;;;;;;23.50;74.10;;;;;;5085662;28;19916;-35
2023/09/09 13:26:34;;;;;;;;;;;23.50;74.10;;;;;;5098826;28;19912;-35
2023/09/09 13:29:00;;;;;;;;;;;23.50;74.00;;;;;;5097198;28;20379;-35
2023/09/09 13:31:26;;;;;;;;;;;23.50;74.10;;;;;;5092276;28;19922;-39
2023/09/09 13:33:52;;;;;;;;;;;23.50;74.10;;;;;;5075275;28;19928;-35
2023/09/09 13:36:18;;;;;;;;;;;23.50;74.00;;;;;;5094875;28;19964;-35
2023/09/09 13:38:45;;;;;;;;;;;23.40;74.10;;;;;;5092697;28;19921;-35
2023/09/09 13:41:11;;;;;;;;;;;23.40;74.10;;;;;;5090198;28;20361;-35
2023/09/09 13:43:37;;;;;;;;;;;23.50;74.20;;;;;;5087284;28;19923;-36
2023/09/09 13:46:03;;;;;;;;;;;23.50;74.20;;;;;;5090356;28;19916;-35
2023/09/09 13:48:29;;;;;;;;;;;23.50;74.20;;;;;;5101583;28;19920;-35
2023/09/09 13:50:54;;;;;;;;;;;23.50;74.20;;;;;;5085027;28;20377;-35
2023/09/09 13:53:20;;;;;;;;;;;23.50;74.20;;;;;;5084467;28;19916;-35
2023/09/09 13:55:46;;;;;;;;;;;23.50;74.20;;;;;;5093197;28;20014;-35
2023/09/09 13:58:12;;;;;;;;;;;23.50;74.00;;;;;;5091838;28;19936;-35
2023/09/09 14:00:38;;;;;;;;;;;23.50;73.90;;;;;;5087097;28;19913;-35
2023/09/09 14:03:04;;;;;;;;;;;23.50;73.90;;;;;;5084835;28;19913;-35
2023/09/09 14:05:30;;;;;;;;;;;23.50;73.90;;;;;;5093426;28;19935;-35
2023/09/09 14:07:56;;;;;;;;;;;23.50;74.00;;;;;;5092862;28;19915;-36
2023/09/09 14:10:22;;;;;;;;;;;23.50;74.00;;;;;;5089727;28;19920;-35
2023/09/09 14:12:47;;;;;;;;;;;23.50;74.00;;;;;;5091461;28;20016;-35
2023/09/09 14:15:15;;;;;;;;;;;23.50;74.10;;;;;;5084044;28;19971;-35